createdAt,value
2022-11-29T00:01:26.096Z,3.63
2022-11-29T00:06:26.795Z,3.15
2022-11-29T00:11:41.478Z,3.71
2022-11-29T00:16:42.874Z,3.69
2022-11-29T00:21:40.140Z,3.57
2022-11-29T00:26:37.340Z,3.41
2022-11-29T00:31:35.331Z,3.16
2022-11-29T00:36:38.576Z,3.37
2022-11-29T00:41:36.687Z,3.51
2022-11-29T00:46:33.747Z,3.44
2022-11-29T00:51:30.779Z,3.72
2022-11-29T00:56:29.490Z,3.04
2022-11-29T01:01:26.872Z,3.10
2022-11-29T01:06:23.941Z,3.05
2022-11-29T01:11:23.233Z,3.67
2022-11-29T01:16:21.740Z,3.65
2022-11-29T01:21:21.643Z,3.68
2022-11-29T01:26:21.630Z,3.38
2022-11-29T01:31:21.136Z,3.58
2022-11-29T01:36:19.224Z,3.23
2022-11-29T01:41:20.791Z,3.54
2022-11-29T01:46:17.883Z,2.87
2022-11-29T01:51:15.901Z,3.54
2022-11-29T01:56:15.711Z,3.23
2022-11-29T02:01:14.100Z,3.52
2022-11-29T02:06:11.249Z,3.55
2022-11-29T02:11:44.504Z,3.33
2022-11-29T02:16:56.542Z,3.34
2022-11-29T02:21:58.122Z,3.66
2022-11-29T02:27:18.287Z,3.55
2022-11-29T02:32:44.260Z,3.24
2022-11-29T02:37:58.563Z,3.01
2022-11-29T02:43:14.812Z,3.37
2022-11-29T02:48:33.120Z,3.62
2022-11-29T02:53:38.285Z,3.03
2022-11-29T02:58:43.926Z,3.44
2022-11-29T03:03:46.948Z,3.42
2022-11-29T03:08:52.276Z,3.20
2022-11-29T03:13:56.105Z,3.20
2022-11-29T03:19:05.366Z,3.64
2022-11-29T03:24:08.206Z,2.95
2022-11-29T03:29:20.299Z,3.48
2022-11-29T03:34:25.424Z,3.01
2022-11-29T03:39:33.186Z,3.08
2022-11-29T03:44:35.784Z,3.30
2022-11-29T03:49:41.353Z,3.17
2022-11-29T03:54:50.961Z,3.37
2022-11-29T04:00:02.041Z,2.73
2022-11-29T04:05:47.776Z,3.08
2022-11-29T04:11:05.971Z,3.26
2022-11-29T04:16:31.880Z,3.12
2022-11-29T04:21:56.060Z,3.22
2022-11-29T04:27:19.464Z,3.10
2022-11-29T04:32:39.837Z,3.12
2022-11-29T04:38:25.947Z,3.26
2022-11-29T04:43:47.383Z,2.90
2022-11-29T04:49:02.083Z,3.22
2022-11-29T04:54:13.353Z,3.36
2022-11-29T04:59:18.742Z,3.03
2022-11-29T05:04:21.782Z,3.26
2022-11-29T05:09:28.947Z,3.47
2022-11-29T05:14:40.723Z,3.24
2022-11-29T05:19:52.507Z,3.56
2022-11-29T05:25:00.978Z,3.55
2022-11-29T05:30:03.387Z,3.48
2022-11-29T05:35:16.834Z,3.24
2022-11-29T05:40:44.731Z,3.57
2022-11-29T05:45:49.350Z,3.41
2022-11-29T05:50:54.663Z,3.45
2022-11-29T05:56:04.876Z,3.52
2022-11-29T06:01:29.106Z,2.88
2022-11-29T06:06:46.013Z,3.33
2022-11-29T06:11:47.601Z,3.50
2022-11-29T06:17:19.745Z,2.91
2022-11-29T06:22:43.042Z,3.42
2022-11-29T06:28:01.838Z,3.64
2022-11-29T06:33:05.838Z,3.62
2022-11-29T06:38:12.452Z,3.67
2022-11-29T06:43:14.296Z,3.65
2022-11-29T06:48:16.083Z,3.48
2022-11-29T06:53:22.676Z,3.68
2022-11-29T06:58:43.787Z,3.58
2022-11-29T07:04:05.039Z,2.97
2022-11-29T07:09:13.951Z,3.33
2022-11-29T07:14:22.405Z,3.78
2022-11-29T07:19:28.814Z,3.81
2022-11-29T07:24:41.853Z,3.84
2022-11-29T07:29:48.906Z,3.47
2022-11-29T07:34:58.574Z,3.68
2022-11-29T07:40:03.522Z,3.28
2022-11-29T07:45:13.120Z,3.80
2022-11-29T07:50:12.569Z,3.66
2022-11-29T07:55:18.497Z,3.45
2022-11-29T08:00:18.710Z,3.98
2022-11-29T08:05:21.805Z,4.06
2022-11-29T08:10:20.664Z,4.07
2022-11-29T08:15:25.148Z,3.78
2022-11-29T08:20:29.607Z,3.88
2022-11-29T08:25:30.495Z,4.00
2022-11-29T08:30:33.340Z,4.25
2022-11-29T08:35:31.816Z,4.35
2022-11-29T08:40:29.359Z,4.17
2022-11-29T08:45:28.087Z,4.28
2022-11-29T08:50:28.545Z,4.06
2022-11-29T08:55:32.094Z,3.61
2022-11-29T09:00:30.452Z,4.32
2022-11-29T09:05:30.003Z,4.22
2022-11-29T09:10:49.082Z,4.10
2022-11-29T09:15:47.168Z,4.20
2022-11-29T09:20:58.888Z,4.28
2022-11-29T09:26:02.141Z,4.06
2022-11-29T09:31:05.586Z,4.52
2022-11-29T09:36:08.833Z,4.09
2022-11-29T09:41:58.936Z,4.34
2022-11-29T09:47:17.711Z,4.47
2022-11-29T09:52:28.997Z,4.87
2022-11-29T09:57:30.073Z,4.60
2022-11-29T10:02:37.442Z,4.56
2022-11-29T10:07:44.912Z,4.90
2022-11-29T10:12:48.978Z,4.75
2022-11-29T10:17:54.087Z,4.60
2022-11-29T10:22:56.919Z,4.47
2022-11-29T10:27:55.846Z,4.96
2022-11-29T10:32:58.164Z,4.47
2022-11-29T10:38:29.852Z,4.33
2022-11-29T10:43:26.331Z,5.22
2022-11-29T10:48:33.508Z,5.09
2022-11-29T10:53:40.012Z,4.92
2022-11-29T10:58:55.732Z,4.60
2022-11-29T11:04:14.711Z,4.97
2022-11-29T11:09:54.413Z,4.61
2022-11-29T11:14:53.995Z,4.86
2022-11-29T11:20:02.843Z,5.08
2022-11-29T11:25:25.331Z,5.29
2022-11-29T11:30:38.850Z,5.07
2022-11-29T11:35:45.560Z,5.25
2022-11-29T11:41:11.424Z,5.49
2022-11-29T11:46:17.683Z,5.46
2022-11-29T11:51:58.009Z,5.47
2022-11-29T11:57:09.671Z,5.48
2022-11-29T12:02:25.979Z,5.56
2022-11-29T12:07:59.780Z,5.53
2022-11-29T12:12:57.366Z,4.96
2022-11-29T12:18:09.094Z,5.26
2022-11-29T12:23:24.694Z,5.47
2022-11-29T12:28:28.647Z,5.33
2022-11-29T12:33:38.409Z,5.32
2022-11-29T12:44:18.533Z,5.38
2022-11-29T12:49:29.753Z,5.50
2022-11-29T12:54:40.492Z,5.46
2022-11-29T13:00:11.539Z,5.27
2022-11-29T13:05:19.364Z,4.92
2022-11-29T13:10:33.066Z,5.54
2022-11-29T13:15:39.845Z,5.36
2022-11-29T13:20:44.992Z,5.46
2022-11-29T13:25:48.433Z,5.13
2022-11-29T13:30:47.355Z,5.55
2022-11-29T13:35:52.944Z,5.18
2022-11-29T13:40:59.375Z,5.36
2022-11-29T13:46:06.115Z,5.30
2022-11-29T13:51:26.926Z,5.27
2022-11-29T13:56:32.245Z,5.48
2022-11-29T14:01:55.978Z,5.24
2022-11-29T14:07:12.313Z,5.38
2022-11-29T14:12:37.927Z,5.67
2022-11-29T14:17:48.615Z,5.69
2022-11-29T14:23:13.769Z,4.95
2022-11-29T14:28:39.955Z,5.27
2022-11-29T14:34:06.816Z,5.06
2022-11-29T14:39:30.976Z,5.63
2022-11-29T14:44:33.906Z,5.42
2022-11-29T14:49:40.570Z,5.66
2022-11-29T14:55:03.418Z,5.01
2022-11-29T15:00:07.282Z,5.28
2022-11-29T15:05:17.985Z,5.64
2022-11-29T15:10:21.376Z,5.75
2022-11-29T15:16:09.345Z,5.83
2022-11-29T15:21:40.862Z,5.24
2022-11-29T15:26:44.408Z,5.48
2022-11-29T15:31:47.124Z,5.42
2022-11-29T15:36:49.995Z,5.34
2022-11-29T15:42:02.078Z,5.79
2022-11-29T15:47:14.568Z,5.06
2022-11-29T15:52:20.751Z,5.74
2022-11-29T15:57:26.144Z,5.73
2022-11-29T16:02:27.261Z,5.74
2022-11-29T16:07:26.944Z,5.32
2022-11-29T16:12:24.597Z,5.60
2022-11-29T16:17:25.036Z,5.76
2022-11-29T16:22:23.710Z,5.10
2022-11-29T16:27:25.077Z,5.44
2022-11-29T16:32:29.381Z,5.65
2022-11-29T16:37:32.588Z,5.66
2022-11-29T16:42:31.908Z,5.39
2022-11-29T16:47:38.869Z,5.72
2022-11-29T16:52:47.539Z,5.72
2022-11-29T16:57:52.353Z,5.70
2022-11-29T17:02:52.703Z,5.55
2022-11-29T17:07:51.700Z,5.38
2022-11-29T17:13:05.257Z,5.44
2022-11-29T17:18:10.542Z,5.23
2022-11-29T17:23:08.937Z,5.01
2022-11-29T17:28:10.159Z,5.03
2022-11-29T17:33:07.247Z,5.44
2022-11-29T17:38:18.143Z,5.08
2022-11-29T17:44:00.133Z,5.46
2022-11-29T17:49:10.023Z,4.98
2022-11-29T17:54:12.953Z,5.52
2022-11-29T17:59:13.559Z,5.13
2022-11-29T18:04:15.612Z,5.34
2022-11-29T18:09:17.063Z,4.97
2022-11-29T18:14:16.621Z,5.63
2022-11-29T18:19:15.646Z,5.54
2022-11-29T18:24:13.235Z,5.39
2022-11-29T18:29:10.448Z,5.39
2022-11-29T18:34:12.670Z,5.37
2022-11-29T18:39:14.070Z,5.57
2022-11-29T18:44:13.310Z,5.14
2022-11-29T18:49:13.472Z,5.41
2022-11-29T18:54:24.592Z,5.38
2022-11-29T18:59:29.761Z,5.08
2022-11-29T19:04:27.805Z,5.34
2022-11-29T19:09:25.461Z,5.47
2022-11-29T19:15:13.231Z,5.59
2022-11-29T19:20:52.616Z,4.74
2022-11-29T19:26:11.388Z,4.96
2022-11-29T19:31:13.072Z,5.50
2022-11-29T19:36:13.676Z,5.26
2022-11-29T19:41:16.795Z,5.74
2022-11-29T19:46:22.212Z,4.93
2022-11-29T19:51:25.192Z,5.34
2022-11-29T19:56:23.517Z,5.20
2022-11-29T20:01:22.508Z,4.85
2022-11-29T20:06:24.265Z,5.41
2022-11-29T20:11:23.363Z,5.50
2022-11-29T20:16:24.794Z,5.28
2022-11-29T20:21:26.532Z,5.14
2022-11-29T20:26:32.776Z,5.41
2022-11-29T20:31:36.737Z,5.21
2022-11-29T20:36:46.474Z,5.02
2022-11-29T20:42:12.897Z,5.16
2022-11-29T20:47:29.560Z,4.96
2022-11-29T20:52:38.603Z,4.86
2022-11-29T20:57:42.087Z,4.80
2022-11-29T21:02:43.156Z,4.89
2022-11-29T21:07:41.240Z,4.53
2022-11-29T21:12:38.894Z,5.28
2022-11-29T21:17:40.176Z,4.95
2022-11-29T21:23:00.698Z,5.38
2022-11-29T21:28:03.559Z,5.38
2022-11-29T21:33:01.313Z,5.17
2022-11-29T21:38:00.972Z,5.14
2022-11-29T21:42:58.324Z,4.80
2022-11-29T21:47:59.400Z,5.23
2022-11-29T21:52:56.484Z,5.21
2022-11-29T21:57:54.384Z,5.22
2022-11-29T22:02:51.681Z,5.26
2022-11-29T22:07:54.806Z,5.22
2022-11-29T22:12:52.848Z,5.17
2022-11-29T22:17:51.057Z,5.16
2022-11-29T22:22:50.091Z,4.76
2022-11-29T22:27:49.739Z,4.35
2022-11-29T22:32:46.802Z,5.17
2022-11-29T22:37:45.272Z,5.17
2022-11-29T22:42:42.669Z,5.07
2022-11-29T22:47:43.087Z,5.14
2022-11-29T22:52:44.499Z,4.87
2022-11-29T22:57:42.127Z,5.14
2022-11-29T23:02:42.213Z,5.06
2022-11-29T23:07:42.398Z,4.59
2022-11-29T23:12:39.365Z,5.27
2022-11-29T23:17:36.997Z,5.29
2022-11-29T23:22:38.141Z,5.35
2022-11-29T23:27:38.056Z,5.25
2022-11-29T23:32:34.878Z,5.09
2022-11-29T23:37:33.794Z,4.99
2022-11-29T23:42:30.701Z,5.22
2022-11-29T23:47:27.573Z,4.78
2022-11-29T23:52:24.825Z,5.12
2022-11-29T23:57:22.646Z,4.81
